In Rescue
 
Open Full Screen Window  High Contrast Mode
Wind Gusting 00 knots
14
April 20, 2024 7:30 AM CDT
Weather Information
Wind Direction
  300 °
Wind Speed
  14 kt (16 mph)
Wind Gust
  00 kt (0 mph)
Altimeter
30.30 in
Visibility
10 SM
Temperature
-00° C
32° F
Dewpoint
-05° C
23° F
Humidity
69%
Sky Condition
Overcast @ 4,700 ft
Few @ 3,600 ft
VFR

METAR KJYG 201230Z AUTO 30014KT 10SM FEW036 OVC047 M00/M05 A3030 RMK AO2

FAA Disclaimer: The data displayed is for advisory purposes only and is not to be used for flight planning or operations.